sensor_id;sensor_type;location;lat;lon;timestamp;P1;durP1;ratioP1;P2;durP2;ratioP2
60430;SDS011;46285;45.122;20.726;2023-04-19T00:09:50;37.13;;;26.35;;
60430;SDS011;46285;45.122;20.726;2023-04-19T00:19:52;28.88;;;23.02;;
60430;SDS011;46285;45.122;20.726;2023-04-19T00:29:53;27.65;;;22.58;;
60430;SDS011;46285;45.122;20.726;2023-04-19T00:39:54;27.35;;;22.27;;
60430;SDS011;46285;45.122;20.726;2023-04-19T00:49:55;29.02;;;23.55;;
60430;SDS011;46285;45.122;20.726;2023-04-19T00:59:57;26.17;;;22.00;;
60430;SDS011;46285;45.122;20.726;2023-04-19T01:09:58;30.63;;;24.05;;
60430;SDS011;46285;45.122;20.726;2023-04-19T01:20:03;30.65;;;24.70;;
60430;SDS011;46285;45.122;20.726;2023-04-19T01:30:04;30.60;;;25.17;;
60430;SDS011;46285;45.122;20.726;2023-04-19T01:40:06;30.42;;;24.20;;
60430;SDS011;46285;45.122;20.726;2023-04-19T01:50:07;28.67;;;24.83;;
60430;SDS011;46285;45.122;20.726;2023-04-19T02:00:09;30.15;;;23.25;;
60430;SDS011;46285;45.122;20.726;2023-04-19T02:10:16;28.13;;;23.30;;
60430;SDS011;46285;45.122;20.726;2023-04-19T02:20:18;30.52;;;25.50;;
60430;SDS011;46285;45.122;20.726;2023-04-19T02:30:22;29.27;;;23.80;;
60430;SDS011;46285;45.122;20.726;2023-04-19T02:40:24;30.35;;;22.52;;
60430;SDS011;46285;45.122;20.726;2023-04-19T02:50:25;31.50;;;22.88;;
60430;SDS011;46285;45.122;20.726;2023-04-19T03:00:27;26.48;;;20.13;;
60430;SDS011;46285;45.122;20.726;2023-04-19T03:10:37;27.23;;;21.42;;
60430;SDS011;46285;45.122;20.726;2023-04-19T03:20:39;24.73;;;19.33;;
60430;SDS011;46285;45.122;20.726;2023-04-19T03:30:40;22.40;;;17.20;;
60430;SDS011;46285;45.122;20.726;2023-04-19T03:40:41;20.60;;;14.32;;
60430;SDS011;46285;45.122;20.726;2023-04-19T03:50:46;19.47;;;13.43;;
60430;SDS011;46285;45.122;20.726;2023-04-19T04:00:51;18.95;;;14.30;;
60430;SDS011;46285;45.122;20.726;2023-04-19T04:10:53;17.00;;;12.25;;
60430;SDS011;46285;45.122;20.726;2023-04-19T04:20:54;17.73;;;11.80;;
60430;SDS011;46285;45.122;20.726;2023-04-19T04:30:57;27.23;;;20.80;;
60430;SDS011;46285;45.122;20.726;2023-04-19T04:41:00;14.98;;;10.35;;
60430;SDS011;46285;45.122;20.726;2023-04-19T04:51:01;19.30;;;13.52;;
60430;SDS011;46285;45.122;20.726;2023-04-19T05:01:03;15.25;;;9.02;;
60430;SDS011;46285;45.122;20.726;2023-04-19T05:11:10;21.67;;;13.10;;
60430;SDS011;46285;45.122;20.726;2023-04-19T05:21:12;18.70;;;11.48;;
60430;SDS011;46285;45.122;20.726;2023-04-19T05:31:15;13.05;;;8.95;;
60430;SDS011;46285;45.122;20.726;2023-04-19T05:41:29;12.48;;;7.32;;
60430;SDS011;46285;45.122;20.726;2023-04-19T05:51:31;14.68;;;8.57;;
60430;SDS011;46285;45.122;20.726;2023-04-19T06:01:39;19.30;;;8.50;;
60430;SDS011;46285;45.122;20.726;2023-04-19T06:11:40;19.95;;;12.20;;
60430;SDS011;46285;45.122;20.726;2023-04-19T06:21:42;13.70;;;9.00;;
60430;SDS011;46285;45.122;20.726;2023-04-19T06:31:43;18.98;;;9.32;;
60430;SDS011;46285;45.122;20.726;2023-04-19T06:41:45;11.45;;;7.80;;
60430;SDS011;46285;45.122;20.726;2023-04-19T06:51:49;12.97;;;7.97;;
60430;SDS011;46285;45.122;20.726;2023-04-19T07:01:51;13.23;;;6.65;;
60430;SDS011;46285;45.122;20.726;2023-04-19T07:22:37;11.85;;;5.88;;
60430;SDS011;46285;45.122;20.726;2023-04-19T07:32:39;15.25;;;7.60;;
60430;SDS011;46285;45.122;20.726;2023-04-19T07:42:41;12.70;;;5.80;;
60430;SDS011;46285;45.122;20.726;2023-04-19T07:53:01;15.27;;;7.72;;
60430;SDS011;46285;45.122;20.726;2023-04-19T08:03:06;15.07;;;7.00;;
60430;SDS011;46285;45.122;20.726;2023-04-19T08:13:07;14.20;;;7.80;;
60430;SDS011;46285;45.122;20.726;2023-04-19T08:23:09;10.02;;;6.28;;
60430;SDS011;46285;45.122;20.726;2023-04-19T08:33:11;11.00;;;6.18;;
60430;SDS011;46285;45.122;20.726;2023-04-19T08:43:15;11.90;;;6.83;;
60430;SDS011;46285;45.122;20.726;2023-04-19T08:53:16;12.68;;;5.82;;
60430;SDS011;46285;45.122;20.726;2023-04-19T09:03:18;14.10;;;5.38;;
60430;SDS011;46285;45.122;20.726;2023-04-19T09:13:19;11.02;;;5.72;;
60430;SDS011;46285;45.122;20.726;2023-04-19T09:23:21;10.43;;;5.78;;
60430;SDS011;46285;45.122;20.726;2023-04-19T09:33:32;10.25;;;5.55;;
60430;SDS011;46285;45.122;20.726;2023-04-19T09:43:45;13.43;;;6.65;;
60430;SDS011;46285;45.122;20.726;2023-04-19T09:53:46;8.65;;;5.72;;
60430;SDS011;46285;45.122;20.726;2023-04-19T10:03:56;12.02;;;5.82;;
60430;SDS011;46285;45.122;20.726;2023-04-19T10:14:02;10.18;;;6.10;;
60430;SDS011;46285;45.122;20.726;2023-04-19T10:24:04;10.43;;;4.60;;
60430;SDS011;46285;45.122;20.726;2023-04-19T10:34:11;9.88;;;4.93;;
60430;SDS011;46285;45.122;20.726;2023-04-19T10:44:20;9.32;;;4.25;;
60430;SDS011;46285;45.122;20.726;2023-04-19T10:54:27;14.60;;;4.05;;
60430;SDS011;46285;45.122;20.726;2023-04-19T11:14:31;10.30;;;4.55;;
60430;SDS011;46285;45.122;20.726;2023-04-19T11:24:33;8.80;;;3.90;;
60430;SDS011;46285;45.122;20.726;2023-04-19T11:34:35;6.43;;;2.58;;
60430;SDS011;46285;45.122;20.726;2023-04-19T11:44:36;10.60;;;3.55;;
60430;SDS011;46285;45.122;20.726;2023-04-19T11:54:37;11.23;;;5.35;;
60430;SDS011;46285;45.122;20.726;2023-04-19T12:04:39;19.65;;;7.38;;
60430;SDS011;46285;45.122;20.726;2023-04-19T12:14:42;10.50;;;6.30;;
60430;SDS011;46285;45.122;20.726;2023-04-19T12:24:52;7.32;;;4.57;;
60430;SDS011;46285;45.122;20.726;2023-04-19T12:34:54;9.45;;;5.93;;
60430;SDS011;46285;45.122;20.726;2023-04-19T12:44:55;10.68;;;6.05;;
60430;SDS011;46285;45.122;20.726;2023-04-19T12:54:56;9.60;;;5.75;;
60430;SDS011;46285;45.122;20.726;2023-04-19T13:04:57;8.70;;;5.25;;
60430;SDS011;46285;45.122;20.726;2023-04-19T13:14:59;12.27;;;7.15;;
60430;SDS011;46285;45.122;20.726;2023-04-19T13:25:00;14.93;;;7.78;;
60430;SDS011;46285;45.122;20.726;2023-04-19T13:35:01;8.95;;;5.63;;
60430;SDS011;46285;45.122;20.726;2023-04-19T13:45:03;10.05;;;5.57;;
60430;SDS011;46285;45.122;20.726;2023-04-19T13:55:08;9.52;;;5.40;;
60430;SDS011;46285;45.122;20.726;2023-04-19T14:05:09;8.93;;;5.38;;
60430;SDS011;46285;45.122;20.726;2023-04-19T14:15:10;15.93;;;5.70;;
60430;SDS011;46285;45.122;20.726;2023-04-19T14:25:12;8.80;;;4.90;;
60430;SDS011;46285;45.122;20.726;2023-04-19T14:35:15;10.32;;;5.53;;
60430;SDS011;46285;45.122;20.726;2023-04-19T14:45:16;16.02;;;5.80;;
60430;SDS011;46285;45.122;20.726;2023-04-19T14:55:18;19.75;;;11.55;;
60430;SDS011;46285;45.122;20.726;2023-04-19T15:05:21;10.02;;;5.90;;
60430;SDS011;46285;45.122;20.726;2023-04-19T15:15:22;16.90;;;8.35;;
60430;SDS011;46285;45.122;20.726;2023-04-19T15:25:23;11.63;;;8.18;;
60430;SDS011;46285;45.122;20.726;2023-04-19T15:35:24;16.38;;;9.60;;
60430;SDS011;46285;45.122;20.726;2023-04-19T15:45:26;37.92;;;28.58;;
60430;SDS011;46285;45.122;20.726;2023-04-19T15:55:27;15.82;;;9.07;;
60430;SDS011;46285;45.122;20.726;2023-04-19T16:05:28;20.80;;;11.35;;
60430;SDS011;46285;45.122;20.726;2023-04-19T16:15:29;50.97;;;33.63;;
60430;SDS011;46285;45.122;20.726;2023-04-19T16:25:31;50.13;;;36.70;;
60430;SDS011;46285;45.122;20.726;2023-04-19T16:35:32;56.63;;;49.45;;
60430;SDS011;46285;45.122;20.726;2023-04-19T16:45:33;292.95;;;209.00;;
60430;SDS011;46285;45.122;20.726;2023-04-19T16:55:35;88.68;;;64.50;;
60430;SDS011;46285;45.122;20.726;2023-04-19T17:05:36;28.60;;;20.63;;
60430;SDS011;46285;45.122;20.726;2023-04-19T17:15:37;35.25;;;24.40;;
60430;SDS011;46285;45.122;20.726;2023-04-19T17:25:39;34.40;;;27.70;;
60430;SDS011;46285;45.122;20.726;2023-04-19T17:35:40;62.20;;;42.38;;
60430;SDS011;46285;45.122;20.726;2023-04-19T17:45:41;59.95;;;44.70;;
60430;SDS011;46285;45.122;20.726;2023-04-19T17:55:42;32.70;;;22.52;;
60430;SDS011;46285;45.122;20.726;2023-04-19T18:05:43;56.72;;;39.20;;
60430;SDS011;46285;45.122;20.726;2023-04-19T18:15:45;97.40;;;65.88;;
60430;SDS011;46285;45.122;20.726;2023-04-19T18:25:52;128.45;;;89.82;;
60430;SDS011;46285;45.122;20.726;2023-04-19T18:35:54;103.65;;;76.35;;
60430;SDS011;46285;45.122;20.726;2023-04-19T18:45:55;150.02;;;112.35;;
60430;SDS011;46285;45.122;20.726;2023-04-19T18:55:56;129.98;;;99.90;;
60430;SDS011;46285;45.122;20.726;2023-04-19T19:05:57;191.02;;;131.82;;
60430;SDS011;46285;45.122;20.726;2023-04-19T19:15:59;115.55;;;82.53;;
60430;SDS011;46285;45.122;20.726;2023-04-19T19:26:00;76.57;;;54.88;;
60430;SDS011;46285;45.122;20.726;2023-04-19T19:36:01;30.45;;;22.38;;
60430;SDS011;46285;45.122;20.726;2023-04-19T19:46:02;28.73;;;21.55;;
60430;SDS011;46285;45.122;20.726;2023-04-19T19:56:04;20.23;;;14.98;;
60430;SDS011;46285;45.122;20.726;2023-04-19T20:06:05;22.05;;;16.30;;
60430;SDS011;46285;45.122;20.726;2023-04-19T20:16:06;22.17;;;17.33;;
60430;SDS011;46285;45.122;20.726;2023-04-19T20:26:07;25.38;;;21.08;;
60430;SDS011;46285;45.122;20.726;2023-04-19T20:36:08;30.63;;;24.45;;
60430;SDS011;46285;45.122;20.726;2023-04-19T20:46:10;29.45;;;24.02;;
60430;SDS011;46285;45.122;20.726;2023-04-19T20:56:11;31.27;;;24.77;;
60430;SDS011;46285;45.122;20.726;2023-04-19T21:06:12;29.98;;;23.75;;
60430;SDS011;46285;45.122;20.726;2023-04-19T21:16:14;27.50;;;23.38;;
60430;SDS011;46285;45.122;20.726;2023-04-19T21:26:16;32.55;;;26.30;;
60430;SDS011;46285;45.122;20.726;2023-04-19T21:36:18;30.88;;;24.55;;
60430;SDS011;46285;45.122;20.726;2023-04-19T21:46:30;28.58;;;23.02;;
60430;SDS011;46285;45.122;20.726;2023-04-19T21:56:36;32.90;;;25.13;;
60430;SDS011;46285;45.122;20.726;2023-04-19T22:06:39;34.63;;;25.08;;
60430;SDS011;46285;45.122;20.726;2023-04-19T22:16:42;28.08;;;20.92;;
60430;SDS011;46285;45.122;20.726;2023-04-19T22:26:43;23.48;;;19.92;;
60430;SDS011;46285;45.122;20.726;2023-04-19T22:36:46;26.15;;;20.98;;
60430;SDS011;46285;45.122;20.726;2023-04-19T22:46:48;26.73;;;21.40;;
60430;SDS011;46285;45.122;20.726;2023-04-19T22:56:49;27.13;;;22.23;;
60430;SDS011;46285;45.122;20.726;2023-04-19T23:06:50;28.38;;;23.13;;
60430;SDS011;46285;45.122;20.726;2023-04-19T23:16:52;30.85;;;21.83;;
60430;SDS011;46285;45.122;20.726;2023-04-19T23:26:53;26.23;;;22.48;;
60430;SDS011;46285;45.122;20.726;2023-04-19T23:36:54;34.55;;;27.55;;
60430;SDS011;46285;45.122;20.726;2023-04-19T23:46:56;32.40;;;26.08;;
60430;SDS011;46285;45.122;20.726;2023-04-19T23:56:57;31.23;;;24.77;;
